Time;durP1;ratioP1;P1;durP2;ratioP2;P2;SDS_P1;SDS_P2;PMS_P1;PMS_P2;Temp;Humidity;BMP_temperature;BMP_pressure;BME280_temperature;BME280_humidity;BME280_pressure;Samples;Min_cycle;Max_cycle;Signal;HPM_P1;HPM_P2
2022/08/28 00:02:09;;;;;;;;;10.00;9.00;;;;;;;;5063425;28;44851;-82
2022/08/28 00:04:35;;;;;;;;;5.00;5.00;;;;;;;;5060545;28;44733;-82
2022/08/28 00:07:00;;;;;;;;;4.67;4.67;;;;;;;;5044223;28;45964;-83
2022/08/28 00:09:26;;;;;;;;;4.00;3.67;;;;;;;;5061428;28;47743;-83
2022/08/28 00:11:52;;;;;;;;;3.00;3.00;;;;;;;;5040924;28;44670;-82
2022/08/28 00:14:19;;;;;;;;;6.33;5.00;;;;;;;;5036682;28;44853;-85
2022/08/28 00:16:45;;;;;;;;;5.67;3.67;;;;;;;;5043876;28;44831;-84
2022/08/28 00:19:11;;;;;;;;;3.00;3.00;;;;;;;;5054656;28;45161;-83
2022/08/28 00:21:36;;;;;;;;;4.00;4.00;;;;;;;;5049012;28;44793;-83
2022/08/28 00:24:02;;;;;;;;;6.33;6.33;;;;;;;;5062946;28;45293;-83
2022/08/28 00:29:11;;;;;;;;;6.00;5.00;;;;;;;;5060738;28;45814;-82
2022/08/28 00:31:38;;;;;;;;;4.67;4.00;;;;;;;;5062701;28;45426;-82
2022/08/28 00:34:04;;;;;;;;;3.33;3.00;;;;;;;;5063609;28;44772;-80
2022/08/28 00:36:30;;;;;;;;;9.00;4.67;;;;;;;;5061167;28;44880;-82
2022/08/28 00:38:55;;;;;;;;;5.00;4.67;;;;;;;;5062460;28;45328;-82
2022/08/28 00:41:21;;;;;;;;;5.00;5.00;;;;;;;;5055949;28;44927;-81
2022/08/28 00:43:48;;;;;;;;;4.67;4.00;;;;;;;;5056671;28;44900;-81
2022/08/28 00:46:18;;;;;;;;;6.00;4.67;;;;;;;;5061838;28;45126;-83
2022/08/28 00:48:43;;;;;;;;;3.00;3.00;;;;;;;;5061869;28;45152;-83
2022/08/28 00:53:56;;;;;;;;;0.00;0.00;;;;;;;;5038775;28;44712;-81
2022/08/28 00:56:21;;;;;;;;;4.00;4.00;;;;;;;;5040738;28;44837;-82
2022/08/28 00:58:48;;;;;;;;;3.67;3.67;;;;;;;;5047738;28;46437;-77
2022/08/28 01:01:14;;;;;;;;;1.00;1.00;;;;;;;;5054098;28;44717;-78
2022/08/28 01:03:41;;;;;;;;;5.67;5.67;;;;;;;;5052106;28;45400;-78
2022/08/28 01:06:07;;;;;;;;;5.67;4.67;;;;;;;;5045770;28;44837;-77
2022/08/28 01:08:37;;;;;;;;;4.00;4.00;;;;;;;;5046063;28;46344;-80
2022/08/28 01:11:05;;;;;;;;;5.00;5.00;;;;;;;;5059738;28;44744;-81
2022/08/28 01:13:31;;;;;;;;;5.00;4.00;;;;;;;;5059915;28;45460;-83
2022/08/28 01:15:57;;;;;;;;;8.00;5.00;;;;;;;;5074421;28;44879;-78
2022/08/28 01:18:22;;;;;;;;;4.33;3.67;;;;;;;;5066849;28;45942;-77
2022/08/28 01:21:00;;;;;;;;;5.33;5.33;;;;;;;;5051224;28;45406;-77
2022/08/28 01:23:37;;;;;;;;;6.67;5.33;;;;;;;;5042243;28;44725;-77
2022/08/28 01:26:03;;;;;;;;;8.67;5.67;;;;;;;;5053952;28;45201;-78
2022/08/28 01:28:28;;;;;;;;;6.33;4.33;;;;;;;;5045781;28;45116;-78
2022/08/28 01:30:53;;;;;;;;;4.00;4.00;;;;;;;;5054187;28;45590;-77
2022/08/28 01:33:19;;;;;;;;;5.00;4.33;;;;;;;;5046672;28;44817;-77
2022/08/28 01:35:46;;;;;;;;;4.67;4.67;;;;;;;;5024547;28;45871;-77
2022/08/28 01:38:11;;;;;;;;;2.67;2.00;;;;;;;;5055106;28;46353;-78
2022/08/28 01:40:42;;;;;;;;;4.67;4.00;;;;;;;;5055646;28;44752;-77
2022/08/28 01:43:30;;;;;;;;;7.67;5.00;;;;;;;;5034087;28;45354;-78
2022/08/28 01:46:00;;;;;;;;;7.33;3.67;;;;;;;;5053350;28;44835;-76
2022/08/28 01:48:26;;;;;;;;;5.00;5.00;;;;;;;;5054589;28;45276;-77
2022/08/28 01:50:54;;;;;;;;;4.00;4.00;;;;;;;;5026989;28;45343;-77
2022/08/28 01:53:22;;;;;;;;;4.00;4.00;;;;;;;;5056066;28;45438;-77
2022/08/28 01:55:48;;;;;;;;;3.00;3.00;;;;;;;;5054593;28;44861;-77
2022/08/28 01:58:14;;;;;;;;;10.00;7.67;;;;;;;;5054963;28;45484;-77
2022/08/28 02:00:40;;;;;;;;;5.33;5.33;;;;;;;;5037690;28;44733;-77
2022/08/28 02:03:06;;;;;;;;;6.00;6.00;;;;;;;;5055775;28;44795;-77
2022/08/28 02:05:31;;;;;;;;;2.33;2.33;;;;;;;;5055509;28;45635;-78
2022/08/28 02:07:57;;;;;;;;;6.33;4.67;;;;;;;;5064442;28;44902;-77
2022/08/28 02:10:24;;;;;;;;;5.00;4.00;;;;;;;;5062803;28;45396;-76
2022/08/28 02:12:50;;;;;;;;;4.00;4.00;;;;;;;;5059040;28;45373;-81
2022/08/28 02:15:15;;;;;;;;;5.00;4.00;;;;;;;;5060124;28;45521;-81
2022/08/28 02:17:40;;;;;;;;;7.00;6.00;;;;;;;;5063759;28;45967;-81
2022/08/28 02:20:07;;;;;;;;;4.67;3.00;;;;;;;;5060321;28;45465;-81
2022/08/28 02:22:32;;;;;;;;;5.67;4.00;;;;;;;;5063371;28;44761;-81
2022/08/28 02:24:58;;;;;;;;;6.67;4.33;;;;;;;;5057913;28;45463;-80
2022/08/28 02:27:23;;;;;;;;;7.00;3.00;;;;;;;;5058389;28;45297;-80
2022/08/28 02:29:49;;;;;;;;;4.67;3.67;;;;;;;;5042222;28;45028;-81
2022/08/28 02:32:14;;;;;;;;;5.33;5.33;;;;;;;;5059783;28;44907;-82
2022/08/28 02:34:42;;;;;;;;;5.00;5.00;;;;;;;;5033944;28;45889;-81
2022/08/28 02:37:08;;;;;;;;;4.67;3.33;;;;;;;;5047940;28;45234;-82
2022/08/28 02:39:34;;;;;;;;;6.00;4.33;;;;;;;;5057100;28;44750;-80
2022/08/28 02:41:59;;;;;;;;;6.33;4.33;;;;;;;;5041879;28;44776;-82
2022/08/28 02:44:24;;;;;;;;;5.00;5.00;;;;;;;;5058772;28;44804;-79
2022/08/28 02:46:50;;;;;;;;;7.33;4.00;;;;;;;;5059511;28;46140;-82
2022/08/28 02:49:15;;;;;;;;;6.00;5.00;;;;;;;;5046452;28;44917;-82
2022/08/28 02:51:41;;;;;;;;;6.00;4.33;;;;;;;;5054928;28;44747;-80
2022/08/28 02:54:06;;;;;;;;;8.33;5.00;;;;;;;;5059345;28;45699;-80
2022/08/28 02:56:31;;;;;;;;;7.00;4.00;;;;;;;;5060624;28;45187;-81
2022/08/28 02:58:57;;;;;;;;;4.33;4.33;;;;;;;;5059529;28;45392;-82
2022/08/28 03:01:22;;;;;;;;;5.67;4.67;;;;;;;;5058675;28;45228;-83
2022/08/28 03:03:48;;;;;;;;;7.67;7.33;;;;;;;;5058920;28;44771;-83
2022/08/28 03:06:13;;;;;;;;;5.00;5.00;;;;;;;;5074126;27;46184;-82
2022/08/28 03:08:40;;;;;;;;;5.00;5.00;;;;;;;;5059300;28;44778;-81
2022/08/28 03:11:05;;;;;;;;;4.67;4.67;;;;;;;;5058351;28;45726;-81
2022/08/28 03:13:31;;;;;;;;;5.00;4.00;;;;;;;;5058474;28;45308;-81
2022/08/28 03:15:56;;;;;;;;;5.67;5.00;;;;;;;;5040887;28;46070;-82
2022/08/28 03:18:23;;;;;;;;;6.00;6.00;;;;;;;;5053251;28;44834;-82
2022/08/28 03:20:48;;;;;;;;;6.00;5.33;;;;;;;;5042820;28;45625;-82
2022/08/28 03:23:26;;;;;;;;;4.67;4.00;;;;;;;;5041414;28;45879;-82
2022/08/28 03:25:52;;;;;;;;;8.67;6.00;;;;;;;;5033928;28;45468;-83
2022/08/28 03:28:17;;;;;;;;;7.33;5.00;;;;;;;;5051042;28;44827;-81
2022/08/28 03:30:43;;;;;;;;;4.33;3.67;;;;;;;;5040760;28;44800;-82
2022/08/28 03:33:08;;;;;;;;;7.67;5.00;;;;;;;;5059232;28;45400;-81
2022/08/28 03:35:34;;;;;;;;;4.33;4.00;;;;;;;;5061359;28;45087;-81
2022/08/28 03:37:59;;;;;;;;;7.33;5.67;;;;;;;;5045541;28;44725;-82
2022/08/28 03:40:24;;;;;;;;;5.67;4.67;;;;;;;;5064033;28;44702;-79
2022/08/28 03:42:50;;;;;;;;;6.00;5.00;;;;;;;;5061525;28;44823;-80
2022/08/28 03:45:15;;;;;;;;;7.33;4.67;;;;;;;;5062968;28;45304;-79
2022/08/28 03:47:41;;;;;;;;;4.00;3.00;;;;;;;;5062121;28;44729;-79
2022/08/28 03:50:10;;;;;;;;;6.00;5.00;;;;;;;;5052033;28;44746;-80
2022/08/28 03:52:35;;;;;;;;;4.00;4.00;;;;;;;;5059417;28;44876;-81
2022/08/28 03:55:01;;;;;;;;;6.33;4.00;;;;;;;;5063697;28;46279;-82
2022/08/28 03:57:26;;;;;;;;;6.00;6.00;;;;;;;;5063509;28;44855;-80
2022/08/28 03:59:52;;;;;;;;;5.33;5.33;;;;;;;;5056705;28;44734;-80
2022/08/28 04:02:19;;;;;;;;;5.67;5.67;;;;;;;;5042461;28;44799;-79
2022/08/28 04:04:48;;;;;;;;;5.00;5.00;;;;;;;;5047839;28;46962;-80
2022/08/28 04:07:14;;;;;;;;;3.67;3.67;;;;;;;;5061487;28;44674;-79
2022/08/28 04:09:39;;;;;;;;;7.33;6.33;;;;;;;;5044379;28;44764;-81
2022/08/28 04:12:06;;;;;;;;;3.00;3.00;;;;;;;;5062018;28;45379;-80
2022/08/28 04:14:31;;;;;;;;;6.33;6.33;;;;;;;;5061902;28;45522;-82
2022/08/28 04:16:56;;;;;;;;;6.00;4.33;;;;;;;;5062202;28;44755;-80
2022/08/28 04:19:22;;;;;;;;;4.67;4.67;;;;;;;;5058618;28;45178;-81
2022/08/28 04:21:47;;;;;;;;;7.67;6.00;;;;;;;;5050554;28;44863;-82
2022/08/28 04:24:12;;;;;;;;;4.33;4.33;;;;;;;;5060726;28;46555;-81
2022/08/28 04:26:38;;;;;;;;;5.33;5.33;;;;;;;;5044180;28;44831;-82
2022/08/28 04:29:04;;;;;;;;;4.00;4.00;;;;;;;;5062383;28;45472;-79
2022/08/28 04:31:29;;;;;;;;;6.00;6.00;;;;;;;;5063080;28;44819;-81
2022/08/28 04:33:55;;;;;;;;;6.33;5.33;;;;;;;;5043806;28;46528;-82
2022/08/28 04:36:21;;;;;;;;;7.33;5.00;;;;;;;;5043274;28;45422;-82
2022/08/28 04:38:46;;;;;;;;;4.00;4.00;;;;;;;;5028264;28;44723;-81
2022/08/28 04:41:13;;;;;;;;;6.00;6.00;;;;;;;;5046905;28;45435;-82
2022/08/28 04:43:39;;;;;;;;;7.67;5.33;;;;;;;;5064634;28;45809;-84
2022/08/28 04:46:07;;;;;;;;;6.00;5.00;;;;;;;;5044905;28;44751;-81
2022/08/28 04:48:33;;;;;;;;;10.67;6.67;;;;;;;;5059662;28;44770;-81
2022/08/28 04:50:58;;;;;;;;;7.00;5.33;;;;;;;;5071370;28;44789;-81
2022/08/28 04:53:24;;;;;;;;;4.33;4.33;;;;;;;;5069466;28;45166;-81
2022/08/28 04:55:50;;;;;;;;;4.67;4.00;;;;;;;;5055029;28;45367;-81
2022/08/28 04:58:16;;;;;;;;;7.00;6.33;;;;;;;;5080992;27;44738;-86
2022/08/28 05:00:43;;;;;;;;;5.00;5.00;;;;;;;;5059727;28;44785;-87
2022/08/28 05:03:10;;;;;;;;;7.33;5.67;;;;;;;;5064349;27;46390;-85
2022/08/28 05:05:49;;;;;;;;;10.00;7.67;;;;;;;;5059025;28;44857;-83
2022/08/28 05:08:16;;;;;;;;;6.00;5.00;;;;;;;;5078240;27;44733;-83
2022/08/28 05:10:42;;;;;;;;;4.33;4.33;;;;;;;;5076044;28;45301;-84
2022/08/28 05:13:08;;;;;;;;;6.67;5.33;;;;;;;;5045028;28;46785;-84
2022/08/28 05:15:38;;;;;;;;;8.00;4.00;;;;;;;;5043647;28;45050;-84
2022/08/28 05:18:04;;;;;;;;;7.67;6.33;;;;;;;;5044329;28;45691;-83
2022/08/28 05:20:33;;;;;;;;;6.33;6.33;;;;;;;;5052564;28;44781;-82
2022/08/28 05:22:59;;;;;;;;;6.33;5.00;;;;;;;;5075599;28;45299;-86
2022/08/28 05:25:25;;;;;;;;;6.33;4.00;;;;;;;;5073949;27;44705;-82
2022/08/28 05:27:50;;;;;;;;;8.00;6.33;;;;;;;;5046880;28;44733;-83
2022/08/28 05:30:16;;;;;;;;;8.00;6.67;;;;;;;;5043973;28;44737;-84
2022/08/28 05:32:42;;;;;;;;;6.00;6.00;;;;;;;;5051454;28;47546;-79
2022/08/28 05:35:07;;;;;;;;;5.00;4.67;;;;;;;;5042994;28;44749;-80
2022/08/28 05:37:32;;;;;;;;;4.67;4.67;;;;;;;;5042508;28;44866;-83
2022/08/28 05:39:58;;;;;;;;;10.00;7.33;;;;;;;;5061225;28;45721;-82
2022/08/28 05:42:25;;;;;;;;;6.00;5.00;;;;;;;;5061247;28;45865;-82
2022/08/28 05:44:51;;;;;;;;;7.00;6.00;;;;;;;;5051036;28;44686;-77
2022/08/28 05:47:16;;;;;;;;;8.67;7.33;;;;;;;;5052932;28;44890;-80
2022/08/28 05:49:42;;;;;;;;;8.33;5.00;;;;;;;;5059491;28;45390;-80
2022/08/28 05:52:07;;;;;;;;;4.00;4.00;;;;;;;;5041686;28;46889;-79
2022/08/28 05:54:34;;;;;;;;;5.33;4.33;;;;;;;;5044089;28;45255;-82
2022/08/28 05:56:59;;;;;;;;;4.00;4.00;;;;;;;;5038991;28;44753;-80
2022/08/28 05:59:25;;;;;;;;;4.00;4.00;;;;;;;;5050974;28;44942;-81
2022/08/28 06:01:50;;;;;;;;;5.00;4.00;;;;;;;;5053224;28;45153;-80
2022/08/28 06:04:23;;;;;;;;;5.00;5.00;;;;;;;;5059380;28;44757;-81
2022/08/28 06:06:48;;;;;;;;;4.33;4.33;;;;;;;;5039061;28;45345;-79
2022/08/28 06:09:25;;;;;;;;;5.00;5.00;;;;;;;;5055054;28;44816;-81
2022/08/28 06:11:58;;;;;;;;;3.67;3.67;;;;;;;;5055197;28;45080;-86
2022/08/28 06:14:34;;;;;;;;;6.67;5.00;;;;;;;;5060087;28;44812;-86
2022/08/28 06:17:09;;;;;;;;;5.67;4.00;;;;;;;;5059805;28;44964;-90
2022/08/28 06:19:38;;;;;;;;;6.50;3.00;;;;;;;;5044032;28;45289;-90
2022/08/28 06:22:30;;;;;;;;;5.00;5.00;;;;;;;;5045658;28;46147;-90
2022/08/28 06:24:56;;;;;;;;;5.67;3.33;;;;;;;;5048010;28;44981;-85
2022/08/28 06:27:21;;;;;;;;;7.00;4.33;;;;;;;;5060760;28;44793;-87
2022/08/28 06:29:47;;;;;;;;;5.00;3.67;;;;;;;;5061814;28;45125;-86
2022/08/28 06:32:13;;;;;;;;;2.50;2.50;;;;;;;;5061380;28;45160;-83
2022/08/28 06:34:43;;;;;;;;;5.00;3.33;;;;;;;;5043208;28;45830;-82
2022/08/28 06:37:09;;;;;;;;;4.00;3.67;;;;;;;;5056634;28;44737;-84
2022/08/28 06:39:35;;;;;;;;;3.33;3.33;;;;;;;;5061855;28;44864;-83
2022/08/28 06:42:04;;;;;;;;;4.00;3.50;;;;;;;;5062111;28;47046;-86
2022/08/28 06:44:31;;;;;;;;;8.00;4.00;;;;;;;;5061978;28;44826;-82
2022/08/28 06:46:56;;;;;;;;;5.50;3.00;;;;;;;;5042534;28;44803;-82
2022/08/28 06:49:21;;;;;;;;;5.00;5.00;;;;;;;;5043633;28;45520;-80
2022/08/28 06:51:47;;;;;;;;;4.00;2.75;;;;;;;;5042242;28;45570;-83
2022/08/28 06:54:16;;;;;;;;;5.25;4.00;;;;;;;;5038869;28;45405;-80
2022/08/28 06:56:41;;;;;;;;;5.25;4.00;;;;;;;;5041040;28;44829;-80
2022/08/28 06:59:07;;;;;;;;;5.00;4.00;;;;;;;;5060024;28;45083;-80
2022/08/28 07:01:34;;;;;;;;;4.50;4.50;;;;;;;;5058542;28;45387;-80
2022/08/28 07:04:00;;;;;;;;;5.25;4.00;;;;;;;;5060848;28;45679;-83
2022/08/28 07:06:27;;;;;;;;;4.50;2.75;;;;;;;;5060366;28;44925;-82
2022/08/28 07:08:52;;;;;;;;;10.33;9.33;;;;;;;;5041933;28;44868;-80
2022/08/28 07:11:21;;;;;;;;;7.50;5.00;;;;;;;;5042395;28;46756;-84
2022/08/28 07:13:47;;;;;;;;;5.00;4.25;;;;;;;;5061097;28;44817;-81
2022/08/28 07:16:13;;;;;;;;;3.00;3.00;;;;;;;;5060043;28;44781;-82
2022/08/28 07:18:39;;;;;;;;;3.50;3.50;;;;;;;;5051638;28;45863;-82
2022/08/28 07:21:06;;;;;;;;;3.50;3.50;;;;;;;;5062043;28;46541;-83
2022/08/28 07:23:35;;;;;;;;;2.75;2.75;;;;;;;;5054204;28;44793;-83
2022/08/28 07:26:05;;;;;;;;;4.25;3.75;;;;;;;;5050356;28;44757;-82
2022/08/28 07:28:30;;;;;;;;;3.75;3.75;;;;;;;;5054178;28;45583;-82
2022/08/28 07:30:57;;;;;;;;;5.50;5.50;;;;;;;;5081830;27;45281;-81
2022/08/28 07:33:27;;;;;;;;;4.75;3.75;;;;;;;;5072573;28;44903;-82
2022/08/28 07:35:53;;;;;;;;;3.75;3.00;;;;;;;;5063045;28;44799;-83
2022/08/28 07:38:18;;;;;;;;;4.25;3.25;;;;;;;;5057197;28;44843;-81
2022/08/28 07:40:44;;;;;;;;;5.67;4.67;;;;;;;;5057146;28;45241;-84
2022/08/28 07:46:00;;;;;;;;;5.67;5.00;;;;;;;;5063363;28;44816;-83
2022/08/28 07:48:26;;;;;;;;;5.00;4.00;;;;;;;;5062412;28;44777;-82
2022/08/28 07:50:52;;;;;;;;;5.00;4.00;;;;;;;;5035921;28;47197;-81
2022/08/28 07:53:17;;;;;;;;;4.00;4.00;;;;;;;;5042625;28;44885;-83
2022/08/28 07:55:43;;;;;;;;;3.25;3.25;;;;;;;;5068378;28;44741;-82
2022/08/28 07:58:18;;;;;;;;;5.50;3.75;;;;;;;;5052213;28;45742;-88
2022/08/28 08:00:46;;;;;;;;;15.33;14.00;;;;;;;;5053623;28;45151;-80
2022/08/28 08:03:12;;;;;;;;;6.50;6.00;;;;;;;;5057604;28;45185;-78
2022/08/28 08:05:37;;;;;;;;;7.67;5.33;;;;;;;;5059286;28;44780;-81
2022/08/28 08:08:03;;;;;;;;;7.00;4.67;;;;;;;;5072503;28;44677;-87
2022/08/28 08:10:28;;;;;;;;;4.33;4.00;;;;;;;;5064720;28;44916;-88
2022/08/28 08:12:53;;;;;;;;;5.00;4.00;;;;;;;;5063174;28;44650;-82
2022/08/28 08:15:19;;;;;;;;;5.67;3.00;;;;;;;;5050345;28;44711;-82
2022/08/28 08:17:44;;;;;;;;;6.00;4.00;;;;;;;;5061756;28;46336;-82
2022/08/28 08:20:09;;;;;;;;;3.67;3.67;;;;;;;;5038410;28;46781;-81
2022/08/28 08:22:35;;;;;;;;;6.00;5.00;;;;;;;;5040271;28;45392;-83
2022/08/28 08:25:03;;;;;;;;;15.67;12.00;;;;;;;;5031306;28;44650;-81
2022/08/28 08:27:30;;;;;;;;;13.67;12.67;;;;;;;;5043013;28;45231;-80
2022/08/28 08:29:55;;;;;;;;;7.33;7.33;;;;;;;;5051898;28;46546;-79
2022/08/28 08:32:21;;;;;;;;;5.00;4.00;;;;;;;;5053944;28;44732;-81
2022/08/28 08:34:46;;;;;;;;;6.33;6.33;;;;;;;;5061001;28;44923;-81
2022/08/28 08:37:12;;;;;;;;;6.67;6.67;;;;;;;;5044736;28;45395;-81
2022/08/28 08:39:38;;;;;;;;;6.00;6.00;;;;;;;;5049879;28;46694;-78
2022/08/28 08:42:06;;;;;;;;;10.67;6.33;;;;;;;;5041246;28;45084;-80
2022/08/28 08:44:40;;;;;;;;;7.67;4.00;;;;;;;;5047316;28;44927;-82
2022/08/28 08:47:05;;;;;;;;;7.33;6.00;;;;;;;;5061415;28;44821;-80
2022/08/28 08:49:33;;;;;;;;;5.00;5.00;;;;;;;;5060522;28;45452;-79
2022/08/28 08:52:13;;;;;;;;;3.67;3.67;;;;;;;;5060852;28;45284;-81
2022/08/28 08:54:43;;;;;;;;;9.00;6.67;;;;;;;;5028395;28;44769;-80
2022/08/28 08:57:10;;;;;;;;;4.00;4.00;;;;;;;;5060415;28;45367;-83
2022/08/28 08:59:37;;;;;;;;;5.25;4.25;;;;;;;;5059648;28;45048;-81
2022/08/28 09:02:20;;;;;;;;;5.33;5.33;;;;;;;;5033116;28;44733;-81
2022/08/28 09:04:50;;;;;;;;;10.00;7.33;;;;;;;;5060859;28;44741;-81
2022/08/28 09:07:23;;;;;;;;;5.33;4.67;;;;;;;;5055158;28;45108;-80
2022/08/28 09:09:53;;;;;;;;;8.00;7.00;;;;;;;;5052558;28;45243;-82
2022/08/28 09:12:28;;;;;;;;;5.00;5.00;;;;;;;;5039545;28;45419;-81
2022/08/28 09:15:08;;;;;;;;;6.00;5.25;;;;;;;;5046083;28;44781;-82
2022/08/28 09:17:40;;;;;;;;;4.75;4.75;;;;;;;;5060082;28;45578;-84
2022/08/28 09:20:08;;;;;;;;;7.25;4.00;;;;;;;;5055328;28;45171;-80
2022/08/28 09:22:34;;;;;;;;;8.00;7.75;;;;;;;;5064483;28;44678;-82
2022/08/28 09:24:59;;;;;;;;;7.33;6.33;;;;;;;;5061406;28;45079;-81
2022/08/28 09:27:28;;;;;;;;;10.33;10.33;;;;;;;;5043780;28;45579;-82
2022/08/28 09:30:04;;;;;;;;;11.67;9.33;;;;;;;;5065253;28;45079;-80
2022/08/28 09:32:37;;;;;;;;;9.33;7.33;;;;;;;;5067857;27;44776;-83
2022/08/28 09:35:06;;;;;;;;;9.33;8.00;;;;;;;;5041351;28;45417;-76
2022/08/28 09:37:35;;;;;;;;;7.75;6.00;;;;;;;;5036086;28;46338;-80
2022/08/28 09:40:19;;;;;;;;;8.25;6.75;;;;;;;;5055228;28;45454;-81
2022/08/28 09:46:10;;;;;;;;;7.75;6.00;;;;;;;;5060824;28;44783;-85
2022/08/28 09:48:39;;;;;;;;;7.67;7.67;;;;;;;;5038903;28;46076;-82
2022/08/28 09:51:37;;;;;;;;;9.50;8.50;;;;;;;;5058298;28;45336;-78
2022/08/28 09:54:15;;;;;;;;;7.00;7.00;;;;;;;;5046295;28;45498;-76
2022/08/28 09:57:02;;;;;;;;;;;;;;;;;;;;;
2022/08/28 09:59:28;;;;;;;;;7.00;7.00;;;;;;;;5056040;28;74639;-81
2022/08/28 10:02:02;;;;;;;;;8.50;7.00;;;;;;;;5063863;28;45526;-81
2022/08/28 10:04:28;;;;;;;;;8.75;7.50;;;;;;;;5052839;28;44785;-80
2022/08/28 10:07:10;;;;;;;;;6.50;5.25;;;;;;;;5051922;28;44934;-79
2022/08/28 10:09:35;;;;;;;;;8.00;8.00;;;;;;;;5028463;28;45233;-79
2022/08/28 10:12:04;;;;;;;;;6.67;6.67;;;;;;;;5050172;28;45478;-81
2022/08/28 10:14:47;;;;;;;;;8.67;7.33;;;;;;;;5046660;28;45522;-80
2022/08/28 10:17:17;;;;;;;;;8.50;7.50;;;;;;;;5059485;28;45698;-80
2022/08/28 10:19:46;;;;;;;;;5.50;5.50;;;;;;;;5038856;28;45675;-80
2022/08/28 10:22:38;;;;;;;;;6.50;6.50;;;;;;;;5044448;28;45076;-80
2022/08/28 10:25:03;;;;;;;;;9.00;8.00;;;;;;;;5047126;28;45569;-81
2022/08/28 10:27:30;;;;;;;;;7.33;6.67;;;;;;;;5051393;28;44785;-82
2022/08/28 10:30:20;;;;;;;;;8.67;7.33;;;;;;;;5026793;28;45637;-79
2022/08/28 10:32:55;;;;;;;;;9.67;8.33;;;;;;;;5052158;28;47165;-80
2022/08/28 10:35:25;;;;;;;;;9.00;9.00;;;;;;;;5046300;28;45569;-79
2022/08/28 10:38:13;;;;;;;;;6.67;6.67;;;;;;;;5034466;28;45194;-81
2022/08/28 10:40:41;;;;;;;;;10.00;10.00;;;;;;;;5037164;28;45122;-81
2022/08/28 10:43:19;;;;;;;;;8.00;7.00;;;;;;;;5051883;28;45092;-80
2022/08/28 10:45:47;;;;;;;;;7.75;7.75;;;;;;;;5035382;28;45864;-81
2022/08/28 10:48:19;;;;;;;;;9.00;7.33;;;;;;;;5047796;28;45527;-82
2022/08/28 10:50:51;;;;;;;;;7.33;7.33;;;;;;;;5036753;28;45188;-80
2022/08/28 10:53:22;;;;;;;;;10.00;8.00;;;;;;;;5046357;28;45520;-79
2022/08/28 10:56:01;;;;;;;;;7.00;7.00;;;;;;;;5010840;28;45520;-82
2022/08/28 10:58:27;;;;;;;;;8.33;8.33;;;;;;;;5045541;28;45460;-83
2022/08/28 11:00:56;;;;;;;;;9.00;8.00;;;;;;;;5032454;28;45349;-79
2022/08/28 11:03:26;;;;;;;;;12.33;9.00;;;;;;;;5050649;28;45887;-84
2022/08/28 11:05:55;;;;;;;;;8.00;8.00;;;;;;;;5034690;28;45518;-82
2022/08/28 11:08:26;;;;;;;;;28.67;25.33;;;;;;;;5050189;28;45425;-83
2022/08/28 11:10:53;;;;;;;;;7.33;7.33;;;;;;;;5036274;28;45777;-82
2022/08/28 11:13:58;;;;;;;;;8.00;8.00;;;;;;;;5040154;28;48235;-81
2022/08/28 11:16:44;;;;;;;;;6.67;6.33;;;;;;;;4988567;28;45454;-82
2022/08/28 11:19:25;;;;;;;;;8.33;8.33;;;;;;;;4986957;28;45441;-79
2022/08/28 11:21:56;;;;;;;;;6.00;6.00;;;;;;;;5014471;28;46148;-82
2022/08/28 11:24:34;;;;;;;;;9.33;8.00;;;;;;;;5049738;28;45499;-81
2022/08/28 11:27:15;;;;;;;;;6.33;6.33;;;;;;;;5061889;28;45436;-82
2022/08/28 11:29:59;;;;;;;;;7.00;5.00;;;;;;;;5029517;28;45325;-83
2022/08/28 11:32:30;;;;;;;;;9.00;9.00;;;;;;;;5027671;28;45953;-79
2022/08/28 11:34:56;;;;;;;;;7.00;7.00;;;;;;;;5046847;28;46357;-80
2022/08/28 11:37:39;;;;;;;;;4.67;4.67;;;;;;;;5025954;28;45484;-79
2022/08/28 11:40:31;;;;;;;;;9.00;9.00;;;;;;;;5043893;28;45478;-79
2022/08/28 11:43:12;;;;;;;;;6.33;6.33;;;;;;;;5012173;28;45603;-81
2022/08/28 11:45:44;;;;;;;;;8.00;8.00;;;;;;;;5051697;28;45365;-82
2022/08/28 11:48:21;;;;;;;;;9.33;8.33;;;;;;;;5037729;28;45457;-84
2022/08/28 11:50:59;;;;;;;;;5.33;5.33;;;;;;;;5024936;28;45245;-82
2022/08/28 11:53:30;;;;;;;;;7.00;5.33;;;;;;;;5037689;28;45631;-82
2022/08/28 11:56:21;;;;;;;;;9.00;6.33;;;;;;;;5029911;28;46713;-82
2022/08/28 11:58:53;;;;;;;;;7.00;6.00;;;;;;;;5052014;28;45347;-82
2022/08/28 12:01:34;;;;;;;;;5.00;5.00;;;;;;;;5054754;28;45277;-81
2022/08/28 12:04:08;;;;;;;;;6.33;5.67;;;;;;;;5047984;28;45472;-83
2022/08/28 12:06:51;;;;;;;;;8.67;6.67;;;;;;;;5044269;28;45410;-81
2022/08/28 12:09:40;;;;;;;;;8.00;6.00;;;;;;;;5033035;28;45628;-84
2022/08/28 12:12:12;;;;;;;;;8.67;8.00;;;;;;;;5049936;28;44777;-84
2022/08/28 12:14:38;;;;;;;;;5.67;5.67;;;;;;;;5049737;28;45804;-82
2022/08/28 12:17:15;;;;;;;;;6.67;5.00;;;;;;;;5051015;28;47017;-84
2022/08/28 12:19:46;;;;;;;;;9.67;6.67;;;;;;;;5054163;28;45378;-81
2022/08/28 12:22:14;;;;;;;;;8.33;6.00;;;;;;;;5037675;28;45495;-82
2022/08/28 12:24:48;;;;;;;;;6.00;6.00;;;;;;;;5043754;28;45505;-81
2022/08/28 12:27:14;;;;;;;;;7.00;7.00;;;;;;;;5040017;28;46015;-81
2022/08/28 12:29:45;;;;;;;;;16.67;13.00;;;;;;;;5046942;28;45497;-81
2022/08/28 12:32:21;;;;;;;;;7.00;7.00;;;;;;;;5028364;28;45298;-81
2022/08/28 12:35:06;;;;;;;;;6.67;5.33;;;;;;;;5048332;28;45445;-83
2022/08/28 12:37:36;;;;;;;;;6.33;6.33;;;;;;;;5046085;28;45421;-82
2022/08/28 12:40:14;;;;;;;;;6.33;6.33;;;;;;;;5047825;28;45302;-80
2022/08/28 12:42:45;;;;;;;;;5.33;5.33;;;;;;;;5026733;28;45457;-81
2022/08/28 12:45:15;;;;;;;;;6.67;6.00;;;;;;;;5051652;28;45229;-81
2022/08/28 12:47:42;;;;;;;;;4.33;4.00;;;;;;;;5034404;28;45633;-83
2022/08/28 12:50:39;;;;;;;;;6.67;6.00;;;;;;;;5052071;28;45543;-81
2022/08/28 12:53:09;;;;;;;;;8.67;7.00;;;;;;;;5010161;28;45367;-84
2022/08/28 12:55:36;;;;;;;;;4.67;4.67;;;;;;;;5048737;28;47314;-84
2022/08/28 12:58:02;;;;;;;;;6.00;6.00;;;;;;;;5042498;28;45369;-82
2022/08/28 13:00:34;;;;;;;;;8.00;7.00;;;;;;;;5033353;28;44941;-81
2022/08/28 13:03:00;;;;;;;;;5.33;5.33;;;;;;;;5027379;28;45265;-82
2022/08/28 13:05:28;;;;;;;;;9.00;7.00;;;;;;;;5023277;28;45480;-82
2022/08/28 13:07:55;;;;;;;;;14.33;12.00;;;;;;;;5035579;28;45392;-83
2022/08/28 13:10:25;;;;;;;;;9.00;7.00;;;;;;;;5025954;28;45187;-81
2022/08/28 13:12:54;;;;;;;;;6.67;5.67;;;;;;;;5036833;28;44693;-81
2022/08/28 13:15:38;;;;;;;;;8.67;7.00;;;;;;;;5026537;28;45424;-80
2022/08/28 13:18:03;;;;;;;;;6.00;5.00;;;;;;;;5025505;28;45314;-80
2022/08/28 13:20:30;;;;;;;;;5.67;5.67;;;;;;;;5015537;28;45721;-80
2022/08/28 13:22:55;;;;;;;;;7.33;7.00;;;;;;;;5028021;28;45419;-82
2022/08/28 13:25:27;;;;;;;;;8.00;8.00;;;;;;;;5017285;28;45650;-81
2022/08/28 13:28:19;;;;;;;;;4.00;4.00;;;;;;;;5039823;28;45554;-81
2022/08/28 13:30:54;;;;;;;;;7.00;7.00;;;;;;;;5015612;28;45507;-82
2022/08/28 13:33:23;;;;;;;;;7.00;6.00;;;;;;;;5022182;28;45278;-81
2022/08/28 13:35:49;;;;;;;;;7.00;7.00;;;;;;;;5039287;28;45443;-81
2022/08/28 13:38:18;;;;;;;;;8.33;7.33;;;;;;;;5017128;28;46557;-82
2022/08/28 13:40:52;;;;;;;;;16.00;14.67;;;;;;;;5009501;28;45389;-83
2022/08/28 13:43:18;;;;;;;;;5.33;5.33;;;;;;;;4990986;28;45671;-82
2022/08/28 13:45:44;;;;;;;;;6.00;6.00;;;;;;;;5005105;28;45690;-82
2022/08/28 13:48:11;;;;;;;;;5.67;5.33;;;;;;;;5008969;28;47778;-85
2022/08/28 13:50:41;;;;;;;;;7.33;7.33;;;;;;;;5016599;28;45823;-79
2022/08/28 13:53:07;;;;;;;;;6.67;6.67;;;;;;;;5001663;28;45485;-83
2022/08/28 13:55:32;;;;;;;;;7.00;7.00;;;;;;;;5010607;28;45778;-84
2022/08/28 13:57:57;;;;;;;;;7.00;6.00;;;;;;;;5003124;28;48110;-85
2022/08/28 14:00:23;;;;;;;;;4.33;4.33;;;;;;;;5010646;28;45801;-75
2022/08/28 14:05:32;;;;;;;;;8.33;6.33;;;;;;;;5006870;28;45822;-80
2022/08/28 14:07:58;;;;;;;;;8.33;7.00;;;;;;;;5002846;28;46280;-80
2022/08/28 14:10:23;;;;;;;;;6.00;6.00;;;;;;;;4999969;28;45796;-83
2022/08/28 14:12:48;;;;;;;;;8.67;8.00;;;;;;;;4987236;28;45496;-81
2022/08/28 14:15:15;;;;;;;;;5.67;5.67;;;;;;;;4977659;28;46274;-82
2022/08/28 14:17:43;;;;;;;;;6.67;6.67;;;;;;;;5002326;28;45460;-82
2022/08/28 14:20:09;;;;;;;;;10.67;9.33;;;;;;;;4998358;28;45762;-80
2022/08/28 14:22:34;;;;;;;;;7.00;5.33;;;;;;;;4996794;28;45360;-84
2022/08/28 14:25:03;;;;;;;;;12.00;10.67;;;;;;;;5004240;28;46999;-80
2022/08/28 14:27:29;;;;;;;;;6.67;5.00;;;;;;;;5005009;28;45428;-81
2022/08/28 14:29:54;;;;;;;;;6.00;6.00;;;;;;;;4995192;28;46503;-82
2022/08/28 14:32:19;;;;;;;;;8.00;8.00;;;;;;;;5003645;28;45347;-84
2022/08/28 14:34:46;;;;;;;;;9.67;7.67;;;;;;;;5008694;28;45374;-81
2022/08/28 14:37:11;;;;;;;;;7.00;7.00;;;;;;;;5002949;28;46220;-81
2022/08/28 14:39:37;;;;;;;;;8.33;7.33;;;;;;;;5001767;28;45590;-81
2022/08/28 14:42:02;;;;;;;;;8.00;7.00;;;;;;;;5004299;28;45605;-81
2022/08/28 14:44:28;;;;;;;;;5.67;5.67;;;;;;;;4990892;28;47293;-81
2022/08/28 14:46:53;;;;;;;;;8.00;8.00;;;;;;;;4997834;28;46651;-82
2022/08/28 14:49:19;;;;;;;;;7.33;7.33;;;;;;;;5010875;28;45934;-81
2022/08/28 14:51:45;;;;;;;;;4.00;4.00;;;;;;;;4999984;28;45519;-81
2022/08/28 14:54:11;;;;;;;;;5.33;5.00;;;;;;;;5008708;28;45513;-83
2022/08/28 14:56:37;;;;;;;;;5.00;5.00;;;;;;;;5002264;28;46025;-81
2022/08/28 14:59:22;;;;;;;;;9.00;7.67;;;;;;;;5024683;28;45857;-81
2022/08/28 15:01:48;;;;;;;;;6.33;5.00;;;;;;;;5024619;28;45504;-80
2022/08/28 15:04:15;;;;;;;;;6.67;5.33;;;;;;;;5026145;28;47170;-80
2022/08/28 15:06:42;;;;;;;;;7.00;6.33;;;;;;;;5039453;28;45633;-83
2022/08/28 15:09:08;;;;;;;;;9.67;6.67;;;;;;;;5026922;28;45829;-81